sensor_id;sensor_type;location;lat;lon;timestamp;P1;durP1;ratioP1;P2;durP2;ratioP2
77117;SDS011;66072;50.238;19.228;2023-03-16T00:01:56;21.20;;;9.90;;
77117;SDS011;66072;50.238;19.228;2023-03-16T00:04:24;21.90;;;9.40;;
77117;SDS011;66072;50.238;19.228;2023-03-16T00:06:51;20.20;;;10.40;;
77117;SDS011;66072;50.238;19.228;2023-03-16T00:09:19;18.10;;;8.90;;
77117;SDS011;66072;50.238;19.228;2023-03-16T00:11:47;25.80;;;13.20;;
77117;SDS011;66072;50.238;19.228;2023-03-16T00:14:14;28.70;;;12.20;;
77117;SDS011;66072;50.238;19.228;2023-03-16T00:16:42;25.90;;;12.00;;
77117;SDS011;66072;50.238;19.228;2023-03-16T00:19:09;22.50;;;10.30;;
77117;SDS011;66072;50.238;19.228;2023-03-16T00:21:37;16.50;;;7.50;;
77117;SDS011;66072;50.238;19.228;2023-03-16T00:24:05;21.80;;;12.30;;
77117;SDS011;66072;50.238;19.228;2023-03-16T00:26:32;16.00;;;7.40;;
77117;SDS011;66072;50.238;19.228;2023-03-16T00:29:00;24.60;;;11.70;;
77117;SDS011;66072;50.238;19.228;2023-03-16T00:31:27;25.50;;;13.60;;
77117;SDS011;66072;50.238;19.228;2023-03-16T00:33:55;18.40;;;10.80;;
77117;SDS011;66072;50.238;19.228;2023-03-16T00:36:23;23.20;;;11.40;;
77117;SDS011;66072;50.238;19.228;2023-03-16T00:38:50;22.30;;;10.80;;
77117;SDS011;66072;50.238;19.228;2023-03-16T00:41:18;25.10;;;12.60;;
77117;SDS011;66072;50.238;19.228;2023-03-16T00:43:46;18.40;;;9.80;;
77117;SDS011;66072;50.238;19.228;2023-03-16T00:46:14;15.00;;;7.80;;
77117;SDS011;66072;50.238;19.228;2023-03-16T00:48:44;18.60;;;9.00;;
77117;SDS011;66072;50.238;19.228;2023-03-16T00:51:14;20.10;;;11.00;;
77117;SDS011;66072;50.238;19.228;2023-03-16T00:53:44;20.40;;;8.70;;
77117;SDS011;66072;50.238;19.228;2023-03-16T00:56:12;17.00;;;8.30;;
77117;SDS011;66072;50.238;19.228;2023-03-16T00:58:40;17.50;;;9.00;;
77117;SDS011;66072;50.238;19.228;2023-03-16T01:01:13;11.00;;;7.00;;
77117;SDS011;66072;50.238;19.228;2023-03-16T01:03:43;23.10;;;11.20;;
77117;SDS011;66072;50.238;19.228;2023-03-16T01:06:12;22.20;;;12.50;;
77117;SDS011;66072;50.238;19.228;2023-03-16T01:08:41;21.20;;;11.30;;
77117;SDS011;66072;50.238;19.228;2023-03-16T01:11:11;18.10;;;9.00;;
77117;SDS011;66072;50.238;19.228;2023-03-16T01:13:40;19.50;;;9.00;;
77117;SDS011;66072;50.238;19.228;2023-03-16T01:16:09;25.00;;;12.40;;
77117;SDS011;66072;50.238;19.228;2023-03-16T01:18:36;24.10;;;12.80;;
77117;SDS011;66072;50.238;19.228;2023-03-16T01:21:05;26.00;;;13.30;;
77117;SDS011;66072;50.238;19.228;2023-03-16T01:23:35;27.40;;;13.70;;
77117;SDS011;66072;50.238;19.228;2023-03-16T01:26:03;20.80;;;11.50;;
77117;SDS011;66072;50.238;19.228;2023-03-16T01:28:32;20.90;;;10.60;;
77117;SDS011;66072;50.238;19.228;2023-03-16T01:31:01;23.90;;;11.60;;
77117;SDS011;66072;50.238;19.228;2023-03-16T01:33:32;19.40;;;11.50;;
77117;SDS011;66072;50.238;19.228;2023-03-16T01:36:02;21.80;;;10.30;;
77117;SDS011;66072;50.238;19.228;2023-03-16T01:38:30;19.90;;;9.70;;
77117;SDS011;66072;50.238;19.228;2023-03-16T01:40:58;21.30;;;11.30;;
77117;SDS011;66072;50.238;19.228;2023-03-16T01:43:27;22.20;;;11.60;;
77117;SDS011;66072;50.238;19.228;2023-03-16T01:48:26;25.30;;;12.00;;
77117;SDS011;66072;50.238;19.228;2023-03-16T01:50:55;25.40;;;13.00;;
77117;SDS011;66072;50.238;19.228;2023-03-16T01:53:23;26.70;;;14.80;;
77117;SDS011;66072;50.238;19.228;2023-03-16T01:55:51;31.80;;;15.10;;
77117;SDS011;66072;50.238;19.228;2023-03-16T01:58:19;28.80;;;15.00;;
77117;SDS011;66072;50.238;19.228;2023-03-16T02:00:47;23.80;;;11.70;;
77117;SDS011;66072;50.238;19.228;2023-03-16T02:03:15;18.00;;;10.70;;
77117;SDS011;66072;50.238;19.228;2023-03-16T02:05:56;24.50;;;12.40;;
77117;SDS011;66072;50.238;19.228;2023-03-16T02:08:27;23.50;;;11.60;;
77117;SDS011;66072;50.238;19.228;2023-03-16T02:10:55;28.20;;;12.80;;
77117;SDS011;66072;50.238;19.228;2023-03-16T02:13:24;26.40;;;12.70;;
77117;SDS011;66072;50.238;19.228;2023-03-16T02:15:52;20.30;;;11.00;;
77117;SDS011;66072;50.238;19.228;2023-03-16T02:18:20;29.90;;;14.60;;
77117;SDS011;66072;50.238;19.228;2023-03-16T02:23:43;25.20;;;13.30;;
77117;SDS011;66072;50.238;19.228;2023-03-16T02:31:43;32.50;;;17.60;;
77117;SDS011;66072;50.238;19.228;2023-03-16T02:34:11;26.20;;;11.80;;
77117;SDS011;66072;50.238;19.228;2023-03-16T02:36:41;29.60;;;16.50;;
77117;SDS011;66072;50.238;19.228;2023-03-16T02:39:12;32.30;;;17.00;;
77117;SDS011;66072;50.238;19.228;2023-03-16T02:41:39;32.40;;;17.30;;
77117;SDS011;66072;50.238;19.228;2023-03-16T02:44:09;29.90;;;17.70;;
77117;SDS011;66072;50.238;19.228;2023-03-16T02:46:41;36.00;;;20.60;;
77117;SDS011;66072;50.238;19.228;2023-03-16T02:49:14;38.20;;;18.70;;
77117;SDS011;66072;50.238;19.228;2023-03-16T02:51:48;40.50;;;18.60;;
77117;SDS011;66072;50.238;19.228;2023-03-16T02:54:15;33.20;;;22.50;;
77117;SDS011;66072;50.238;19.228;2023-03-16T02:56:43;40.40;;;23.60;;
77117;SDS011;66072;50.238;19.228;2023-03-16T02:59:11;38.50;;;22.40;;
77117;SDS011;66072;50.238;19.228;2023-03-16T03:01:39;34.50;;;20.90;;
77117;SDS011;66072;50.238;19.228;2023-03-16T03:04:06;33.10;;;18.70;;
77117;SDS011;66072;50.238;19.228;2023-03-16T03:06:35;38.60;;;21.00;;
77117;SDS011;66072;50.238;19.228;2023-03-16T03:09:02;33.40;;;18.30;;
77117;SDS011;66072;50.238;19.228;2023-03-16T03:11:31;35.30;;;17.20;;
77117;SDS011;66072;50.238;19.228;2023-03-16T03:13:59;31.50;;;18.80;;
77117;SDS011;66072;50.238;19.228;2023-03-16T03:16:26;31.90;;;17.00;;
77117;SDS011;66072;50.238;19.228;2023-03-16T03:18:54;33.20;;;17.90;;
77117;SDS011;66072;50.238;19.228;2023-03-16T03:21:22;34.40;;;17.30;;
77117;SDS011;66072;50.238;19.228;2023-03-16T03:23:50;25.50;;;14.50;;
77117;SDS011;66072;50.238;19.228;2023-03-16T03:26:18;35.40;;;18.20;;
77117;SDS011;66072;50.238;19.228;2023-03-16T03:28:46;32.00;;;15.90;;
77117;SDS011;66072;50.238;19.228;2023-03-16T03:31:14;31.00;;;17.00;;
77117;SDS011;66072;50.238;19.228;2023-03-16T03:33:47;33.50;;;16.40;;
77117;SDS011;66072;50.238;19.228;2023-03-16T03:36:15;30.90;;;15.00;;
77117;SDS011;66072;50.238;19.228;2023-03-16T03:38:43;30.40;;;16.60;;
77117;SDS011;66072;50.238;19.228;2023-03-16T03:41:11;32.10;;;15.00;;
77117;SDS011;66072;50.238;19.228;2023-03-16T03:43:38;23.20;;;13.00;;
77117;SDS011;66072;50.238;19.228;2023-03-16T03:46:06;27.40;;;12.50;;
77117;SDS011;66072;50.238;19.228;2023-03-16T03:48:34;26.20;;;14.90;;
77117;SDS011;66072;50.238;19.228;2023-03-16T03:51:01;31.20;;;15.80;;
77117;SDS011;66072;50.238;19.228;2023-03-16T03:53:29;28.70;;;15.80;;
77117;SDS011;66072;50.238;19.228;2023-03-16T03:55:56;21.40;;;12.20;;
77117;SDS011;66072;50.238;19.228;2023-03-16T03:58:24;28.60;;;15.00;;
77117;SDS011;66072;50.238;19.228;2023-03-16T04:00:52;28.50;;;17.30;;
77117;SDS011;66072;50.238;19.228;2023-03-16T04:03:19;31.00;;;16.50;;
77117;SDS011;66072;50.238;19.228;2023-03-16T04:05:47;34.10;;;17.40;;
77117;SDS011;66072;50.238;19.228;2023-03-16T04:08:15;35.30;;;17.70;;
77117;SDS011;66072;50.238;19.228;2023-03-16T04:10:42;37.40;;;16.60;;
77117;SDS011;66072;50.238;19.228;2023-03-16T04:13:10;28.40;;;14.10;;
77117;SDS011;66072;50.238;19.228;2023-03-16T04:15:37;34.90;;;20.60;;
77117;SDS011;66072;50.238;19.228;2023-03-16T04:18:05;37.60;;;20.00;;
77117;SDS011;66072;50.238;19.228;2023-03-16T04:20:33;35.80;;;21.20;;
77117;SDS011;66072;50.238;19.228;2023-03-16T04:23:00;38.70;;;19.30;;
77117;SDS011;66072;50.238;19.228;2023-03-16T04:25:28;37.60;;;18.20;;
77117;SDS011;66072;50.238;19.228;2023-03-16T04:27:56;41.10;;;21.90;;
77117;SDS011;66072;50.238;19.228;2023-03-16T04:30:23;50.90;;;25.90;;
77117;SDS011;66072;50.238;19.228;2023-03-16T04:32:51;52.00;;;27.30;;
77117;SDS011;66072;50.238;19.228;2023-03-16T04:35:19;20.30;;;10.30;;
77117;SDS011;66072;50.238;19.228;2023-03-16T04:37:46;44.00;;;23.70;;
77117;SDS011;66072;50.238;19.228;2023-03-16T04:40:14;36.60;;;19.30;;
77117;SDS011;66072;50.238;19.228;2023-03-16T04:42:42;36.80;;;21.00;;
77117;SDS011;66072;50.238;19.228;2023-03-16T04:45:11;42.40;;;22.20;;
77117;SDS011;66072;50.238;19.228;2023-03-16T04:47:40;48.80;;;23.30;;
77117;SDS011;66072;50.238;19.228;2023-03-16T04:50:08;58.30;;;32.30;;
77117;SDS011;66072;50.238;19.228;2023-03-16T04:52:37;53.70;;;29.30;;
77117;SDS011;66072;50.238;19.228;2023-03-16T04:55:05;57.50;;;33.90;;
77117;SDS011;66072;50.238;19.228;2023-03-16T04:57:33;63.40;;;34.90;;
77117;SDS011;66072;50.238;19.228;2023-03-16T05:00:00;52.10;;;27.90;;
77117;SDS011;66072;50.238;19.228;2023-03-16T05:02:28;59.80;;;29.60;;
77117;SDS011;66072;50.238;19.228;2023-03-16T05:04:56;67.60;;;36.50;;
77117;SDS011;66072;50.238;19.228;2023-03-16T05:07:24;68.60;;;36.50;;
77117;SDS011;66072;50.238;19.228;2023-03-16T05:09:51;58.30;;;30.50;;
77117;SDS011;66072;50.238;19.228;2023-03-16T05:12:34;48.40;;;28.60;;
77117;SDS011;66072;50.238;19.228;2023-03-16T05:15:02;55.70;;;31.20;;
77117;SDS011;66072;50.238;19.228;2023-03-16T05:17:30;49.40;;;30.00;;
77117;SDS011;66072;50.238;19.228;2023-03-16T05:19:58;54.50;;;30.00;;
77117;SDS011;66072;50.238;19.228;2023-03-16T05:22:26;47.90;;;25.60;;
77117;SDS011;66072;50.238;19.228;2023-03-16T05:24:54;55.70;;;29.50;;
77117;SDS011;66072;50.238;19.228;2023-03-16T05:27:21;59.30;;;31.40;;
77117;SDS011;66072;50.238;19.228;2023-03-16T05:29:49;53.20;;;30.40;;
77117;SDS011;66072;50.238;19.228;2023-03-16T05:32:17;63.90;;;32.00;;
77117;SDS011;66072;50.238;19.228;2023-03-16T05:34:44;59.70;;;31.20;;
77117;SDS011;66072;50.238;19.228;2023-03-16T05:37:12;53.60;;;28.00;;
77117;SDS011;66072;50.238;19.228;2023-03-16T05:39:39;48.40;;;23.40;;
77117;SDS011;66072;50.238;19.228;2023-03-16T05:42:07;39.60;;;22.20;;
77117;SDS011;66072;50.238;19.228;2023-03-16T05:44:35;42.70;;;23.70;;
77117;SDS011;66072;50.238;19.228;2023-03-16T05:47:03;41.10;;;22.50;;
77117;SDS011;66072;50.238;19.228;2023-03-16T05:49:30;41.80;;;21.30;;
77117;SDS011;66072;50.238;19.228;2023-03-16T05:51:58;52.30;;;25.70;;
77117;SDS011;66072;50.238;19.228;2023-03-16T05:54:26;52.30;;;28.10;;
77117;SDS011;66072;50.238;19.228;2023-03-16T05:56:53;58.50;;;31.30;;
77117;SDS011;66072;50.238;19.228;2023-03-16T05:59:21;62.20;;;31.90;;
77117;SDS011;66072;50.238;19.228;2023-03-16T06:01:49;60.20;;;33.10;;
77117;SDS011;66072;50.238;19.228;2023-03-16T06:04:16;53.80;;;28.20;;
77117;SDS011;66072;50.238;19.228;2023-03-16T06:06:44;16.20;;;8.50;;
77117;SDS011;66072;50.238;19.228;2023-03-16T06:09:11;48.50;;;25.10;;
77117;SDS011;66072;50.238;19.228;2023-03-16T06:11:39;52.00;;;29.10;;
77117;SDS011;66072;50.238;19.228;2023-03-16T06:14:07;47.80;;;25.90;;
77117;SDS011;66072;50.238;19.228;2023-03-16T06:16:34;53.20;;;28.70;;
77117;SDS011;66072;50.238;19.228;2023-03-16T06:19:02;51.60;;;29.60;;
77117;SDS011;66072;50.238;19.228;2023-03-16T06:21:29;32.00;;;17.80;;
77117;SDS011;66072;50.238;19.228;2023-03-16T06:23:57;37.70;;;21.20;;
77117;SDS011;66072;50.238;19.228;2023-03-16T06:26:25;34.70;;;19.70;;
77117;SDS011;66072;50.238;19.228;2023-03-16T06:28:52;36.00;;;20.80;;
77117;SDS011;66072;50.238;19.228;2023-03-16T06:31:20;51.60;;;26.00;;
77117;SDS011;66072;50.238;19.228;2023-03-16T06:33:48;35.80;;;18.80;;
77117;SDS011;66072;50.238;19.228;2023-03-16T06:36:15;49.10;;;25.00;;
77117;SDS011;66072;50.238;19.228;2023-03-16T06:38:43;21.90;;;12.50;;
77117;SDS011;66072;50.238;19.228;2023-03-16T06:41:11;36.80;;;21.30;;
77117;SDS011;66072;50.238;19.228;2023-03-16T06:43:38;33.20;;;19.20;;
77117;SDS011;66072;50.238;19.228;2023-03-16T06:46:06;30.60;;;19.40;;
77117;SDS011;66072;50.238;19.228;2023-03-16T06:48:34;19.50;;;10.90;;
77117;SDS011;66072;50.238;19.228;2023-03-16T06:51:02;37.30;;;20.30;;
77117;SDS011;66072;50.238;19.228;2023-03-16T06:53:29;44.80;;;25.00;;
77117;SDS011;66072;50.238;19.228;2023-03-16T06:55:57;43.50;;;24.00;;
77117;SDS011;66072;50.238;19.228;2023-03-16T06:58:24;40.10;;;24.00;;
77117;SDS011;66072;50.238;19.228;2023-03-16T07:00:52;23.40;;;14.10;;
77117;SDS011;66072;50.238;19.228;2023-03-16T07:03:20;42.50;;;25.70;;
77117;SDS011;66072;50.238;19.228;2023-03-16T07:05:48;28.20;;;17.00;;
77117;SDS011;66072;50.238;19.228;2023-03-16T07:08:15;41.90;;;25.00;;
77117;SDS011;66072;50.238;19.228;2023-03-16T07:10:43;22.10;;;14.10;;
77117;SDS011;66072;50.238;19.228;2023-03-16T07:13:10;43.10;;;22.90;;
77117;SDS011;66072;50.238;19.228;2023-03-16T07:15:39;43.50;;;25.40;;
77117;SDS011;66072;50.238;19.228;2023-03-16T07:18:09;37.00;;;18.80;;
77117;SDS011;66072;50.238;19.228;2023-03-16T07:20:37;43.70;;;21.60;;
77117;SDS011;66072;50.238;19.228;2023-03-16T07:23:05;40.10;;;22.00;;
77117;SDS011;66072;50.238;19.228;2023-03-16T07:25:33;23.80;;;11.50;;
77117;SDS011;66072;50.238;19.228;2023-03-16T07:28:01;26.80;;;16.70;;
77117;SDS011;66072;50.238;19.228;2023-03-16T07:30:30;31.40;;;17.20;;
77117;SDS011;66072;50.238;19.228;2023-03-16T07:32:58;32.90;;;18.20;;
77117;SDS011;66072;50.238;19.228;2023-03-16T07:35:26;36.60;;;18.90;;
77117;SDS011;66072;50.238;19.228;2023-03-16T07:37:54;27.60;;;16.40;;
77117;SDS011;66072;50.238;19.228;2023-03-16T07:40:22;22.70;;;12.00;;
77117;SDS011;66072;50.238;19.228;2023-03-16T07:42:51;20.90;;;11.90;;
77117;SDS011;66072;50.238;19.228;2023-03-16T07:45:20;19.90;;;10.60;;
77117;SDS011;66072;50.238;19.228;2023-03-16T07:47:48;18.90;;;9.90;;
77117;SDS011;66072;50.238;19.228;2023-03-16T07:50:16;29.40;;;16.80;;
77117;SDS011;66072;50.238;19.228;2023-03-16T07:52:47;22.90;;;11.70;;
77117;SDS011;66072;50.238;19.228;2023-03-16T07:55:15;16.40;;;9.40;;
77117;SDS011;66072;50.238;19.228;2023-03-16T07:57:42;23.40;;;14.80;;
77117;SDS011;66072;50.238;19.228;2023-03-16T08:00:11;17.30;;;10.30;;
77117;SDS011;66072;50.238;19.228;2023-03-16T08:02:39;18.30;;;9.70;;
77117;SDS011;66072;50.238;19.228;2023-03-16T08:07:37;22.30;;;11.10;;
77117;SDS011;66072;50.238;19.228;2023-03-16T08:10:06;21.50;;;13.70;;
77117;SDS011;66072;50.238;19.228;2023-03-16T08:12:34;25.70;;;14.30;;
77117;SDS011;66072;50.238;19.228;2023-03-16T08:15:01;19.20;;;11.90;;
77117;SDS011;66072;50.238;19.228;2023-03-16T08:17:30;21.90;;;12.20;;
77117;SDS011;66072;50.238;19.228;2023-03-16T08:19:57;15.20;;;9.50;;
77117;SDS011;66072;50.238;19.228;2023-03-16T08:22:25;24.90;;;14.30;;
77117;SDS011;66072;50.238;19.228;2023-03-16T08:24:54;20.30;;;9.90;;
77117;SDS011;66072;50.238;19.228;2023-03-16T08:27:22;26.90;;;14.90;;
77117;SDS011;66072;50.238;19.228;2023-03-16T08:29:50;22.60;;;13.00;;
77117;SDS011;66072;50.238;19.228;2023-03-16T08:32:19;26.40;;;16.50;;
77117;SDS011;66072;50.238;19.228;2023-03-16T08:34:48;26.10;;;14.90;;
77117;SDS011;66072;50.238;19.228;2023-03-16T08:37:20;15.10;;;8.70;;
77117;SDS011;66072;50.238;19.228;2023-03-16T08:39:48;18.50;;;10.40;;
77117;SDS011;66072;50.238;19.228;2023-03-16T08:42:19;25.90;;;14.90;;
77117;SDS011;66072;50.238;19.228;2023-03-16T08:44:47;25.20;;;13.30;;
77117;SDS011;66072;50.238;19.228;2023-03-16T08:47:15;14.90;;;7.80;;
77117;SDS011;66072;50.238;19.228;2023-03-16T08:49:45;12.70;;;7.60;;
77117;SDS011;66072;50.238;19.228;2023-03-16T08:52:13;20.50;;;12.80;;
77117;SDS011;66072;50.238;19.228;2023-03-16T08:54:41;21.10;;;11.90;;
77117;SDS011;66072;50.238;19.228;2023-03-16T08:57:16;25.20;;;13.90;;
77117;SDS011;66072;50.238;19.228;2023-03-16T08:59:44;16.90;;;10.60;;
77117;SDS011;66072;50.238;19.228;2023-03-16T09:02:14;22.80;;;13.30;;
77117;SDS011;66072;50.238;19.228;2023-03-16T09:04:42;13.50;;;8.40;;
77117;SDS011;66072;50.238;19.228;2023-03-16T09:07:11;20.40;;;13.30;;
77117;SDS011;66072;50.238;19.228;2023-03-16T09:09:39;23.00;;;12.60;;
77117;SDS011;66072;50.238;19.228;2023-03-16T09:12:08;19.50;;;11.40;;
77117;SDS011;66072;50.238;19.228;2023-03-16T09:14:36;23.10;;;12.50;;
77117;SDS011;66072;50.238;19.228;2023-03-16T09:17:05;20.30;;;14.40;;
77117;SDS011;66072;50.238;19.228;2023-03-16T09:19:36;22.10;;;11.40;;
77117;SDS011;66072;50.238;19.228;2023-03-16T09:22:18;14.10;;;8.50;;
77117;SDS011;66072;50.238;19.228;2023-03-16T09:24:47;22.20;;;13.40;;
77117;SDS011;66072;50.238;19.228;2023-03-16T09:27:16;17.70;;;9.30;;
77117;SDS011;66072;50.238;19.228;2023-03-16T09:29:46;20.50;;;9.90;;
77117;SDS011;66072;50.238;19.228;2023-03-16T09:32:13;15.10;;;9.10;;
77117;SDS011;66072;50.238;19.228;2023-03-16T09:34:49;11.40;;;5.80;;
77117;SDS011;66072;50.238;19.228;2023-03-16T09:37:19;5.90;;;3.70;;
77117;SDS011;66072;50.238;19.228;2023-03-16T09:39:48;8.00;;;4.00;;
77117;SDS011;66072;50.238;19.228;2023-03-16T09:47:26;15.60;;;8.00;;
77117;SDS011;66072;50.238;19.228;2023-03-16T09:49:57;11.70;;;6.30;;
77117;SDS011;66072;50.238;19.228;2023-03-16T09:57:50;9.60;;;5.50;;
77117;SDS011;66072;50.238;19.228;2023-03-16T10:00:20;8.70;;;4.60;;
77117;SDS011;66072;50.238;19.228;2023-03-16T10:05:25;11.50;;;6.60;;
77117;SDS011;66072;50.238;19.228;2023-03-16T10:16:12;9.20;;;4.80;;
77117;SDS011;66072;50.238;19.228;2023-03-16T10:18:49;9.60;;;4.30;;
77117;SDS011;66072;50.238;19.228;2023-03-16T10:21:23;8.30;;;4.90;;
77117;SDS011;66072;50.238;19.228;2023-03-16T10:23:51;6.60;;;3.80;;
77117;SDS011;66072;50.238;19.228;2023-03-16T10:26:30;11.60;;;4.80;;
77117;SDS011;66072;50.238;19.228;2023-03-16T10:29:05;8.50;;;4.50;;
77117;SDS011;66072;50.238;19.228;2023-03-16T10:31:39;7.80;;;4.40;;
77117;SDS011;66072;50.238;19.228;2023-03-16T10:34:08;7.50;;;4.20;;
77117;SDS011;66072;50.238;19.228;2023-03-16T10:36:37;7.80;;;5.30;;
77117;SDS011;66072;50.238;19.228;2023-03-16T10:39:10;7.10;;;4.50;;
77117;SDS011;66072;50.238;19.228;2023-03-16T10:41:44;9.30;;;4.50;;
77117;SDS011;66072;50.238;19.228;2023-03-16T10:44:21;7.00;;;3.70;;
77117;SDS011;66072;50.238;19.228;2023-03-16T10:46:59;7.90;;;4.30;;
77117;SDS011;66072;50.238;19.228;2023-03-16T10:49:41;8.20;;;4.70;;
77117;SDS011;66072;50.238;19.228;2023-03-16T10:54:52;6.90;;;4.00;;
77117;SDS011;66072;50.238;19.228;2023-03-16T10:59:53;5.80;;;4.50;;
77117;SDS011;66072;50.238;19.228;2023-03-16T11:02:29;5.40;;;3.70;;
77117;SDS011;66072;50.238;19.228;2023-03-16T11:05:12;6.50;;;3.80;;
77117;SDS011;66072;50.238;19.228;2023-03-16T11:07:47;6.00;;;3.40;;
77117;SDS011;66072;50.238;19.228;2023-03-16T11:10:27;5.10;;;3.10;;
77117;SDS011;66072;50.238;19.228;2023-03-16T11:13:33;6.50;;;3.60;;
77117;SDS011;66072;50.238;19.228;2023-03-16T11:16:10;8.70;;;4.30;;
77117;SDS011;66072;50.238;19.228;2023-03-16T11:18:59;4.80;;;2.80;;
77117;SDS011;66072;50.238;19.228;2023-03-16T11:22:01;6.40;;;3.70;;
77117;SDS011;66072;50.238;19.228;2023-03-16T11:32:50;6.10;;;2.80;;
77117;SDS011;66072;50.238;19.228;2023-03-16T11:35:27;4.10;;;2.50;;
77117;SDS011;66072;50.238;19.228;2023-03-16T11:38:33;7.20;;;3.10;;
77117;SDS011;66072;50.238;19.228;2023-03-16T11:41:09;4.80;;;3.00;;
77117;SDS011;66072;50.238;19.228;2023-03-16T11:46:27;4.80;;;2.40;;
77117;SDS011;66072;50.238;19.228;2023-03-16T11:49:11;8.30;;;3.50;;
77117;SDS011;66072;50.238;19.228;2023-03-16T11:58:09;7.40;;;2.90;;
77117;SDS011;66072;50.238;19.228;2023-03-16T12:01:02;5.00;;;2.70;;
77117;SDS011;66072;50.238;19.228;2023-03-16T12:07:07;4.40;;;2.60;;
77117;SDS011;66072;50.238;19.228;2023-03-16T12:12:54;5.70;;;2.60;;
77117;SDS011;66072;50.238;19.228;2023-03-16T12:18:17;6.10;;;3.10;;
77117;SDS011;66072;50.238;19.228;2023-03-16T12:20:47;6.50;;;2.80;;
77117;SDS011;66072;50.238;19.228;2023-03-16T12:23:35;5.90;;;2.20;;
77117;SDS011;66072;50.238;19.228;2023-03-16T12:26:17;5.50;;;1.70;;
77117;SDS011;66072;50.238;19.228;2023-03-16T12:28:50;4.50;;;2.40;;
77117;SDS011;66072;50.238;19.228;2023-03-16T12:31:22;5.40;;;2.10;;
77117;SDS011;66072;50.238;19.228;2023-03-16T12:34:21;4.70;;;2.30;;
77117;SDS011;66072;50.238;19.228;2023-03-16T12:37:13;4.90;;;2.40;;
77117;SDS011;66072;50.238;19.228;2023-03-16T12:42:30;5.80;;;2.80;;
77117;SDS011;66072;50.238;19.228;2023-03-16T12:50:29;6.00;;;2.80;;
77117;SDS011;66072;50.238;19.228;2023-03-16T12:52:58;4.30;;;2.30;;
77117;SDS011;66072;50.238;19.228;2023-03-16T12:58:00;4.50;;;1.70;;
77117;SDS011;66072;50.238;19.228;2023-03-16T13:00:33;4.90;;;1.90;;
77117;SDS011;66072;50.238;19.228;2023-03-16T13:03:04;4.80;;;1.80;;
77117;SDS011;66072;50.238;19.228;2023-03-16T13:05:43;4.90;;;2.10;;
77117;SDS011;66072;50.238;19.228;2023-03-16T13:08:14;4.00;;;2.20;;
77117;SDS011;66072;50.238;19.228;2023-03-16T13:10:59;4.50;;;2.10;;
77117;SDS011;66072;50.238;19.228;2023-03-16T13:13:30;4.70;;;1.70;;
77117;SDS011;66072;50.238;19.228;2023-03-16T13:16:08;7.60;;;2.80;;
77117;SDS011;66072;50.238;19.228;2023-03-16T13:18:49;4.40;;;1.80;;
77117;SDS011;66072;50.238;19.228;2023-03-16T13:24:36;4.80;;;1.70;;
77117;SDS011;66072;50.238;19.228;2023-03-16T13:27:13;4.60;;;2.10;;
77117;SDS011;66072;50.238;19.228;2023-03-16T13:30:26;5.40;;;2.50;;
77117;SDS011;66072;50.238;19.228;2023-03-16T13:35:54;6.00;;;2.70;;
77117;SDS011;66072;50.238;19.228;2023-03-16T13:38:24;4.80;;;2.20;;
77117;SDS011;66072;50.238;19.228;2023-03-16T13:40:54;5.10;;;2.00;;
77117;SDS011;66072;50.238;19.228;2023-03-16T13:43:30;3.80;;;1.90;;
77117;SDS011;66072;50.238;19.228;2023-03-16T13:46:00;4.10;;;2.00;;
77117;SDS011;66072;50.238;19.228;2023-03-16T13:48:28;4.30;;;1.80;;
77117;SDS011;66072;50.238;19.228;2023-03-16T13:50:57;5.50;;;2.40;;
77117;SDS011;66072;50.238;19.228;2023-03-16T13:53:30;5.40;;;2.00;;
77117;SDS011;66072;50.238;19.228;2023-03-16T13:55:58;4.60;;;2.40;;
77117;SDS011;66072;50.238;19.228;2023-03-16T13:58:29;4.40;;;2.10;;
77117;SDS011;66072;50.238;19.228;2023-03-16T14:01:03;4.90;;;2.10;;
77117;SDS011;66072;50.238;19.228;2023-03-16T14:03:38;4.00;;;1.90;;
77117;SDS011;66072;50.238;19.228;2023-03-16T14:06:06;4.70;;;1.60;;
77117;SDS011;66072;50.238;19.228;2023-03-16T14:08:45;4.00;;;2.00;;
77117;SDS011;66072;50.238;19.228;2023-03-16T14:11:17;5.60;;;2.40;;
77117;SDS011;66072;50.238;19.228;2023-03-16T14:13:49;4.80;;;1.70;;
77117;SDS011;66072;50.238;19.228;2023-03-16T14:16:18;5.20;;;2.30;;
77117;SDS011;66072;50.238;19.228;2023-03-16T14:18:47;3.70;;;2.00;;
77117;SDS011;66072;50.238;19.228;2023-03-16T14:21:21;3.80;;;1.60;;
77117;SDS011;66072;50.238;19.228;2023-03-16T14:23:51;6.00;;;2.40;;
77117;SDS011;66072;50.238;19.228;2023-03-16T14:26:20;53.60;;;6.50;;
77117;SDS011;66072;50.238;19.228;2023-03-16T14:29:32;4.70;;;2.30;;
77117;SDS011;66072;50.238;19.228;2023-03-16T14:31:42;6.50;;;3.10;;
77117;SDS011;66072;50.238;19.228;2023-03-16T14:34:20;7.70;;;2.90;;
77117;SDS011;66072;50.238;19.228;2023-03-16T14:37:08;6.50;;;2.90;;
77117;SDS011;66072;50.238;19.228;2023-03-16T14:39:40;6.00;;;3.10;;
77117;SDS011;66072;50.238;19.228;2023-03-16T14:42:19;4.50;;;2.80;;
77117;SDS011;66072;50.238;19.228;2023-03-16T14:44:53;6.60;;;3.20;;
77117;SDS011;66072;50.238;19.228;2023-03-16T14:47:34;11.60;;;3.30;;
77117;SDS011;66072;50.238;19.228;2023-03-16T14:50:06;5.60;;;3.00;;
77117;SDS011;66072;50.238;19.228;2023-03-16T14:52:36;6.40;;;3.10;;
77117;SDS011;66072;50.238;19.228;2023-03-16T14:55:16;6.60;;;3.40;;
77117;SDS011;66072;50.238;19.228;2023-03-16T15:00:14;5.80;;;2.00;;
77117;SDS011;66072;50.238;19.228;2023-03-16T15:02:43;6.30;;;2.30;;
77117;SDS011;66072;50.238;19.228;2023-03-16T15:07:53;5.00;;;2.10;;
77117;SDS011;66072;50.238;19.228;2023-03-16T15:10:23;7.00;;;2.10;;
77117;SDS011;66072;50.238;19.228;2023-03-16T15:12:52;5.60;;;2.70;;
77117;SDS011;66072;50.238;19.228;2023-03-16T15:15:21;6.00;;;2.60;;
77117;SDS011;66072;50.238;19.228;2023-03-16T15:17:50;7.10;;;2.70;;
77117;SDS011;66072;50.238;19.228;2023-03-16T15:20:20;7.20;;;2.80;;
77117;SDS011;66072;50.238;19.228;2023-03-16T15:22:56;7.10;;;2.70;;
77117;SDS011;66072;50.238;19.228;2023-03-16T15:25:28;9.70;;;2.60;;
77117;SDS011;66072;50.238;19.228;2023-03-16T15:30:41;4.60;;;2.00;;
77117;SDS011;66072;50.238;19.228;2023-03-16T15:35:38;3.90;;;1.90;;
77117;SDS011;66072;50.238;19.228;2023-03-16T15:38:10;5.10;;;2.20;;
77117;SDS011;66072;50.238;19.228;2023-03-16T15:40:42;4.90;;;2.00;;
77117;SDS011;66072;50.238;19.228;2023-03-16T15:43:11;4.40;;;2.20;;
77117;SDS011;66072;50.238;19.228;2023-03-16T15:45:39;4.60;;;1.80;;
77117;SDS011;66072;50.238;19.228;2023-03-16T15:48:07;4.80;;;2.00;;
77117;SDS011;66072;50.238;19.228;2023-03-16T15:50:37;4.20;;;1.90;;
77117;SDS011;66072;50.238;19.228;2023-03-16T15:53:14;6.00;;;2.20;;
77117;SDS011;66072;50.238;19.228;2023-03-16T15:55:59;6.00;;;2.00;;
77117;SDS011;66072;50.238;19.228;2023-03-16T15:58:30;5.20;;;2.40;;
77117;SDS011;66072;50.238;19.228;2023-03-16T16:01:00;4.50;;;2.00;;
77117;SDS011;66072;50.238;19.228;2023-03-16T16:03:30;5.40;;;2.10;;
77117;SDS011;66072;50.238;19.228;2023-03-16T16:05:57;4.60;;;2.10;;
77117;SDS011;66072;50.238;19.228;2023-03-16T16:08:25;5.30;;;2.20;;
77117;SDS011;66072;50.238;19.228;2023-03-16T16:10:53;4.60;;;2.00;;
77117;SDS011;66072;50.238;19.228;2023-03-16T16:13:24;7.00;;;2.50;;